Time;durP1;ratioP1;P1;durP2;ratioP2;P2;SDS_P1;SDS_P2;PMS_P1;PMS_P2;Temp;Humidity;BMP_temperature;BMP_pressure;BME280_temperature;BME280_humidity;BME280_pressure;Samples;Min_cycle;Max_cycle;Signal;HPM_P1;HPM_P2
2021/04/19 00:01:18;;;;;;;;;;;12.10;57.40;;;;;;5050607;28;20034;-82
2021/04/19 00:03:45;;;;;;;;;;;12.10;57.50;;;;;;5044550;28;19928;-81
2021/04/19 00:06:11;;;;;;;;;;;12.00;57.60;;;;;;5040489;28;19931;-82
2021/04/19 00:08:37;;;;;;;;;;;12.00;57.70;;;;;;5054813;28;20304;-82
2021/04/19 00:11:05;;;;;;;;;;;11.90;57.60;;;;;;5042723;28;19932;-82
2021/04/19 00:13:31;;;;;;;;;;;11.90;57.70;;;;;;5039050;28;19932;-82
2021/04/19 00:15:57;;;;;;;;;;;11.90;57.80;;;;;;5043654;28;19932;-83
2021/04/19 00:18:24;;;;;;;;;;;11.80;58.00;;;;;;5033487;28;19929;-81
2021/04/19 00:20:50;;;;;;;;;;;11.80;58.10;;;;;;5046062;28;20327;-82
2021/04/19 00:23:16;;;;;;;;;;;11.70;58.10;;;;;;5043271;28;20266;-84
2021/04/19 00:25:48;;;;;;;;;;;11.70;58.30;;;;;;5046351;28;19986;-85
2021/04/19 00:28:16;;;;;;;;;;;11.60;58.40;;;;;;5041147;28;19979;-85
2021/04/19 00:30:48;;;;;;;;;;;11.60;58.50;;;;;;5043631;28;20354;-85
2021/04/19 00:46:12;;;;;;;;;;;;;;;;;;;;;
2021/04/19 00:49:18;;;;;;;;;;;11.60;58.90;;;;;;5041239;28;19925;-85
2021/04/19 01:01:31;;;;;;;;;;;11.60;58.70;;;;;;4886252;29;19927;-85
2021/04/19 01:07:19;;;;;;;;;;;11.70;58.70;;;;;;4916946;28;19927;-85
2021/04/19 01:09:51;;;;;;;;;;;11.60;58.90;;;;;;4999914;28;19925;-84
2021/04/19 01:12:18;;;;;;;;;;;11.60;59.10;;;;;;5039251;28;19924;-83
2021/04/19 01:14:44;;;;;;;;;;;11.70;58.90;;;;;;5047656;28;19929;-83
2021/04/19 01:17:10;;;;;;;;;;;11.70;59.00;;;;;;5033849;28;19925;-83
2021/04/19 01:19:37;;;;;;;;;;;11.70;59.10;;;;;;5052521;28;19924;-83
2021/04/19 01:31:19;;;;;;;;;;;11.50;59.10;;;;;;5013512;28;19926;-83
2021/04/19 01:33:46;;;;;;;;;;;11.50;59.20;;;;;;5048392;28;19988;-83
2021/04/19 01:36:13;;;;;;;;;;;11.50;59.30;;;;;;5039023;28;19932;-83
2021/04/19 01:38:41;;;;;;;;;;;11.50;59.40;;;;;;5044395;28;19925;-83
2021/04/19 01:41:08;;;;;;;;;;;11.40;59.40;;;;;;5037166;28;20024;-83
2021/04/19 01:43:37;;;;;;;;;;;11.40;59.50;;;;;;5037451;28;20309;-84
2021/04/19 01:46:04;;;;;;;;;;;11.40;59.40;;;;;;5041070;28;19939;-83
2021/04/19 01:48:31;;;;;;;;;;;11.40;59.60;;;;;;5034480;28;20101;-83
2021/04/19 01:50:57;;;;;;;;;;;11.40;59.60;;;;;;5037071;28;19929;-83
2021/04/19 01:53:24;;;;;;;;;;;11.50;59.70;;;;;;5040345;28;19924;-83
2021/04/19 01:55:50;;;;;;;;;;;11.50;59.60;;;;;;5055775;28;19932;-83
2021/04/19 01:58:18;;;;;;;;;;;11.50;59.30;;;;;;5040016;28;20285;-83
2021/04/19 02:00:46;;;;;;;;;;;11.50;59.20;;;;;;5036807;28;19925;-82
2021/04/19 02:03:27;;;;;;;;;;;11.60;59.10;;;;;;5035507;28;19932;-84
2021/04/19 02:06:00;;;;;;;;;;;11.60;59.10;;;;;;5046754;28;20032;-83
2021/04/19 02:08:30;;;;;;;;;;;11.60;59.10;;;;;;5042921;28;19964;-82
2021/04/19 02:10:58;;;;;;;;;;;11.60;59.10;;;;;;5036803;28;19932;-82
2021/04/19 02:13:33;;;;;;;;;;;11.60;59.00;;;;;;5049856;28;19931;-82
2021/04/19 02:16:02;;;;;;;;;;;11.60;59.00;;;;;;5052411;28;19929;-82
2021/04/19 02:18:36;;;;;;;;;;;11.60;59.10;;;;;;5037598;28;19925;-82
2021/04/19 02:21:07;;;;;;;;;;;11.60;59.00;;;;;;5037348;28;19983;-81
2021/04/19 02:23:35;;;;;;;;;;;11.60;59.00;;;;;;5035308;28;20373;-82
2021/04/19 02:26:04;;;;;;;;;;;11.60;59.00;;;;;;5041299;28;19928;-81
2021/04/19 02:28:32;;;;;;;;;;;11.60;59.00;;;;;;5046144;28;20378;-81
2021/04/19 02:31:01;;;;;;;;;;;11.60;59.10;;;;;;5035360;28;19933;-81
2021/04/19 02:33:31;;;;;;;;;;;11.60;59.20;;;;;;5045419;28;19925;-82
2021/04/19 02:35:57;;;;;;;;;;;11.60;59.10;;;;;;5053275;28;19978;-82
2021/04/19 02:38:28;;;;;;;;;;;11.60;59.00;;;;;;5054785;28;19925;-82
2021/04/19 02:40:55;;;;;;;;;;;11.60;58.90;;;;;;5040844;28;19972;-81
2021/04/19 02:43:22;;;;;;;;;;;11.60;59.00;;;;;;5040555;28;19936;-81
2021/04/19 02:45:50;;;;;;;;;;;11.60;58.80;;;;;;5053491;28;19964;-81
2021/04/19 02:48:17;;;;;;;;;;;11.70;58.70;;;;;;5055007;28;19925;-81
2021/04/19 02:50:44;;;;;;;;;;;11.70;58.70;;;;;;5039982;28;19933;-81
2021/04/19 02:53:10;;;;;;;;;;;11.70;58.50;;;;;;5035041;28;19948;-80
2021/04/19 02:55:37;;;;;;;;;;;11.70;58.50;;;;;;5047070;28;19928;-81
2021/04/19 02:58:05;;;;;;;;;;;11.70;58.60;;;;;;5053086;28;19964;-81
2021/04/19 03:09:46;;;;;;;;;;;11.60;58.70;;;;;;5030813;28;19932;-81
2021/04/19 03:12:15;;;;;;;;;;;11.60;58.80;;;;;;5054054;28;19935;-81
2021/04/19 03:14:44;;;;;;;;;;;11.60;59.40;;;;;;5050868;28;19925;-81
2021/04/19 03:17:18;;;;;;;;;;;11.60;58.90;;;;;;5054051;28;20393;-83
2021/04/19 03:19:47;;;;;;;;;;;11.60;59.00;;;;;;5037880;28;19932;-84
2021/04/19 03:22:16;;;;;;;;;;;11.60;58.90;;;;;;5046256;28;19974;-83
2021/04/19 03:24:49;;;;;;;;;;;11.60;58.90;;;;;;5053718;28;19933;-83
2021/04/19 03:27:29;;;;;;;;;;;11.60;59.00;;;;;;5053427;28;19929;-82
2021/04/19 03:29:56;;;;;;;;;;;11.60;59.00;;;;;;5052078;28;19925;-84
2021/04/19 03:32:32;;;;;;;;;;;11.60;59.00;;;;;;5051731;28;19931;-85
2021/04/19 03:35:08;;;;;;;;;;;11.60;59.20;;;;;;5033141;28;19932;-85
2021/04/19 03:37:37;;;;;;;;;;;11.60;59.20;;;;;;5034684;28;19928;-85
2021/04/19 03:40:07;;;;;;;;;;;11.50;59.20;;;;;;5051838;28;19967;-85
2021/04/19 03:42:42;;;;;;;;;;;11.60;59.50;;;;;;5050031;28;19933;-85
2021/04/19 03:45:16;;;;;;;;;;;11.60;59.50;;;;;;5033047;28;19925;-84
2021/04/19 03:47:55;;;;;;;;;;;11.60;59.60;;;;;;5036211;28;20012;-85
2021/04/19 03:50:22;;;;;;;;;;;11.60;59.80;;;;;;5051600;28;19929;-85
2021/04/19 03:52:52;;;;;;;;;;;11.60;59.70;;;;;;5051055;28;20065;-84
2021/04/19 03:55:20;;;;;;;;;;;11.60;59.90;;;;;;5044001;28;20342;-85
2021/04/19 03:57:55;;;;;;;;;;;11.60;60.00;;;;;;5034967;28;19932;-85
2021/04/19 04:03:48;;;;;;;;;;;11.70;60.50;;;;;;5033233;28;19957;-85
2021/04/19 04:12:16;;;;;;;;;;;11.60;60.00;;;;;;5030290;28;20423;-82
2021/04/19 04:18:15;;;;;;;;;;;11.60;60.20;;;;;;5045036;28;20020;-85
2021/04/19 04:20:44;;;;;;;;;;;11.50;60.10;;;;;;5027329;28;20044;-85
2021/04/19 04:23:10;;;;;;;;;;;11.50;60.20;;;;;;5050776;28;19932;-82
2021/04/19 04:25:49;;;;;;;;;;;11.50;60.30;;;;;;5051331;28;19943;-85
2021/04/19 04:28:19;;;;;;;;;;;11.50;60.10;;;;;;5051774;28;19968;-83
2021/04/19 04:33:59;;;;;;;;;;;11.60;60.10;;;;;;4984771;28;19933;-82
2021/04/19 04:36:26;;;;;;;;;;;11.60;59.90;;;;;;5024413;28;19977;-83
2021/04/19 04:38:52;;;;;;;;;;;11.70;60.00;;;;;;5034095;28;20301;-84
2021/04/19 04:41:19;;;;;;;;;;;11.70;60.10;;;;;;5050987;28;19925;-82
2021/04/19 04:43:46;;;;;;;;;;;11.70;60.10;;;;;;5048605;28;19924;-83
2021/04/19 04:46:29;;;;;;;;;;;11.70;59.90;;;;;;5036880;28;20002;-84
2021/04/19 04:48:59;;;;;;;;;;;11.70;59.80;;;;;;5039857;28;19975;-82
2021/04/19 04:51:27;;;;;;;;;;;11.70;59.80;;;;;;5033830;28;19932;-83
2021/04/19 04:53:54;;;;;;;;;;;11.70;60.00;;;;;;5032761;28;19936;-81
2021/04/19 04:56:23;;;;;;;;;;;11.70;60.10;;;;;;5047186;28;20325;-81
2021/04/19 04:58:53;;;;;;;;;;;11.70;60.10;;;;;;5036691;28;19925;-83
2021/04/19 05:01:20;;;;;;;;;;;11.70;60.20;;;;;;5043725;28;20019;-82
2021/04/19 05:03:48;;;;;;;;;;;11.70;60.20;;;;;;5055941;28;19931;-80
2021/04/19 05:06:14;;;;;;;;;;;11.70;60.20;;;;;;5047732;28;20491;-84
2021/04/19 05:08:54;;;;;;;;;;;11.70;60.30;;;;;;5038498;28;19925;-85
2021/04/19 05:14:25;;;;;;;;;;;11.70;60.70;;;;;;4981147;28;20004;-85
2021/04/19 05:16:53;;;;;;;;;;;11.70;61.00;;;;;;5037804;28;19944;-82
2021/04/19 05:19:21;;;;;;;;;;;11.80;61.50;;;;;;5036942;28;20422;-83
2021/04/19 05:21:50;;;;;;;;;;;11.70;61.60;;;;;;5036537;28;19929;-84
2021/04/19 05:24:20;;;;;;;;;;;11.70;62.00;;;;;;5038781;28;19979;-85
2021/04/19 05:26:47;;;;;;;;;;;11.70;62.30;;;;;;5037258;28;19929;-82
2021/04/19 05:29:13;;;;;;;;;;;11.60;62.40;;;;;;5050826;28;20438;-83
2021/04/19 05:35:04;;;;;;;;;;;11.50;62.90;;;;;;5039986;28;19920;-85
2021/04/19 05:37:39;;;;;;;;;;;11.50;63.30;;;;;;5046887;28;20392;-84
2021/04/19 05:43:14;;;;;;;;;;;11.40;63.80;;;;;;5041126;28;19924;-84
2021/04/19 05:45:42;;;;;;;;;;;11.40;64.10;;;;;;5046676;28;19929;-82
2021/04/19 05:48:24;;;;;;;;;;;11.40;64.50;;;;;;5044718;28;20359;-84
2021/04/19 05:50:53;;;;;;;;;;;11.30;64.80;;;;;;5046252;28;19972;-81
2021/04/19 05:53:26;;;;;;;;;;;11.40;65.20;;;;;;5044583;28;19984;-83
2021/04/19 05:56:07;;;;;;;;;;;11.40;65.40;;;;;;5035532;28;19925;-84
2021/04/19 05:58:41;;;;;;;;;;;11.40;65.70;;;;;;5053101;28;19955;-82
2021/04/19 06:50:40;;;;;;;;;;;11.20;69.00;;;;;;4848586;29;19948;-83
2021/04/19 06:56:39;;;;;;;;;;;11.30;68.90;;;;;;4886564;29;19922;-82
2021/04/19 07:14:29;;;;;;;;;;;11.60;68.60;;;;;;4971741;28;19933;-87
2021/04/19 07:47:50;;;;;;;;;;;11.40;69.20;;;;;;4987485;28;19972;-86
2021/04/19 07:50:31;;;;;;;;;;;11.50;69.20;;;;;;4993183;28;19972;-82
2021/04/19 07:53:20;;;;;;;;;;;11.50;69.00;;;;;;4994327;28;20312;-82
2021/04/19 07:55:52;;;;;;;;;;;11.50;69.00;;;;;;4991145;28;20338;-82
2021/04/19 07:58:37;;;;;;;;;;;11.50;69.00;;;;;;4993300;28;19936;-82
2021/04/19 08:01:09;;;;;;;;;;;11.60;68.90;;;;;;4993630;28;19933;-86
2021/04/19 08:06:55;;;;;;;;;;;11.60;68.80;;;;;;4975589;28;19933;-82
2021/04/19 08:09:30;;;;;;;;;;;11.60;69.00;;;;;;4993076;28;19972;-82
2021/04/19 08:18:05;;;;;;;;;;;11.80;68.70;;;;;;4930293;29;19931;-84
2021/04/19 08:23:45;;;;;;;;;;;11.70;69.60;;;;;;4940403;28;19981;-82
2021/04/19 08:32:21;;;;;;;;;;;11.50;70.20;;;;;;4893576;28;20402;-81
2021/04/19 08:38:06;;;;;;;;;;;11.50;70.90;;;;;;4971221;28;19973;-81
2021/04/19 08:44:02;;;;;;;;;;;11.50;71.30;;;;;;4999583;28;20404;-80
2021/04/19 08:46:29;;;;;;;;;;;11.60;71.50;;;;;;5012944;28;20032;-81
2021/04/19 08:49:04;;;;;;;;;;;11.60;71.30;;;;;;5012215;28;19933;-83
2021/04/19 08:51:30;;;;;;;;;;;11.70;71.00;;;;;;5012137;28;19930;-77
2021/04/19 08:54:18;;;;;;;;;;;11.70;70.70;;;;;;5012258;28;19953;-81
2021/04/19 08:56:49;;;;;;;;;;;11.70;70.50;;;;;;4997093;28;19930;-81
2021/04/19 08:59:17;;;;;;;;;;;11.70;70.30;;;;;;5011675;28;20301;-77
2021/04/19 09:01:43;;;;;;;;;;;11.80;70.30;;;;;;5011986;28;20297;-78
2021/04/19 09:04:09;;;;;;;;;;;11.80;70.30;;;;;;5012229;28;19932;-80
2021/04/19 09:06:40;;;;;;;;;;;11.80;70.00;;;;;;5011403;28;19934;-79
2021/04/19 09:09:06;;;;;;;;;;;11.80;70.10;;;;;;5012025;28;19995;-80
2021/04/19 09:11:35;;;;;;;;;;;11.80;70.00;;;;;;5008647;28;19933;-83
2021/04/19 09:14:07;;;;;;;;;;;11.80;69.80;;;;;;5013055;28;19977;-82
2021/04/19 09:16:36;;;;;;;;;;;11.80;70.00;;;;;;5009633;28;19937;-80
2021/04/19 09:19:04;;;;;;;;;;;11.90;70.10;;;;;;5008872;28;20337;-81
2021/04/19 09:21:35;;;;;;;;;;;11.90;70.00;;;;;;5011079;28;19936;-82
2021/04/19 09:27:29;;;;;;;;;;;11.90;70.20;;;;;;4970153;28;19937;-84
2021/04/19 09:33:38;;;;;;;;;;;11.90;70.50;;;;;;4921577;29;20519;-84
2021/04/19 09:36:06;;;;;;;;;;;11.80;70.50;;;;;;4950775;28;19994;-80
2021/04/19 09:38:48;;;;;;;;;;;11.80;70.60;;;;;;4950756;28;19973;-79
2021/04/19 09:41:27;;;;;;;;;;;11.80;70.60;;;;;;4984094;28;19926;-81
2021/04/19 10:16:56;;;;;;;;;;;12.70;70.00;;;;;;5020803;28;19971;-85
2021/04/19 10:20:19;;;;;;;;;;;;;;;;;;;;;
2021/04/19 10:22:46;;;;;;;;;;;12.70;69.00;;;;;;4985037;28;19921;-83
2021/04/19 10:25:15;;;;;;;;;;;12.70;69.10;;;;;;5052043;28;19925;-84
2021/04/19 10:27:47;;;;;;;;;;;12.80;68.90;;;;;;5042287;28;19928;-82
2021/04/19 10:33:22;;;;;;;;;;;13.00;68.90;;;;;;5030591;28;19928;-84
2021/04/19 10:35:59;;;;;;;;;;;13.10;68.90;;;;;;5040707;28;19921;-87
2021/04/19 10:38:26;;;;;;;;;;;13.10;68.40;;;;;;5041638;28;20273;-80
2021/04/19 10:50:10;;;;;;;;;;;13.20;68.10;;;;;;5032494;28;19986;-84
2021/04/19 10:53:07;;;;;;;;;;;13.10;67.60;;;;;;5032286;28;19931;-85
2021/04/19 10:56:14;;;;;;;;;;;13.10;67.70;;;;;;5032706;28;20428;-86
2021/04/19 11:02:00;;;;;;;;;;;12.90;67.60;;;;;;5038821;28;19915;-84
2021/04/19 11:04:30;;;;;;;;;;;12.90;67.90;;;;;;5035360;28;19921;-84
2021/04/19 11:07:44;;;;;;;;;;;12.90;68.20;;;;;;5033006;28;20372;-83
2021/04/19 11:10:18;;;;;;;;;;;13.00;68.30;;;;;;5022635;28;19934;-83
2021/04/19 11:13:01;;;;;;;;;;;13.20;68.30;;;;;;5029271;28;19921;-83
2021/04/19 11:15:28;;;;;;;;;;;13.20;68.20;;;;;;5031756;28;19921;-81
2021/04/19 11:17:54;;;;;;;;;;;13.40;68.10;;;;;;5024770;28;19921;-80
2021/04/19 11:23:24;;;;;;;;;;;13.50;67.40;;;;;;5004091;28;20136;-78
2021/04/19 11:25:52;;;;;;;;;;;13.50;66.50;;;;;;5019411;28;20342;-78
2021/04/19 11:28:19;;;;;;;;;;;13.40;66.50;;;;;;5018810;28;19925;-78
2021/04/19 11:30:46;;;;;;;;;;;13.40;67.10;;;;;;5028257;28;20411;-78
2021/04/19 11:33:14;;;;;;;;;;;13.50;67.30;;;;;;5018345;28;19922;-77
2021/04/19 11:35:41;;;;;;;;;;;13.50;66.80;;;;;;5022099;28;19921;-77
2021/04/19 11:38:08;;;;;;;;;;;13.50;66.70;;;;;;5023136;28;19994;-78
2021/04/19 11:40:39;;;;;;;;;;;13.60;66.80;;;;;;5022970;28;19928;-77
2021/04/19 11:43:16;;;;;;;;;;;13.70;66.90;;;;;;5020142;28;19925;-77
2021/04/19 11:45:43;;;;;;;;;;;13.80;66.90;;;;;;5031634;28;19921;-78
2021/04/19 11:48:10;;;;;;;;;;;13.90;66.50;;;;;;5038428;28;19921;-78
2021/04/19 11:50:37;;;;;;;;;;;13.90;66.10;;;;;;5036318;28;20372;-78
2021/04/19 11:53:04;;;;;;;;;;;13.90;66.30;;;;;;5043771;28;19944;-78
2021/04/19 11:55:30;;;;;;;;;;;14.00;66.60;;;;;;5028910;28;20333;-79
2021/04/19 11:57:56;;;;;;;;;;;14.00;66.20;;;;;;5038189;28;19922;-78
2021/04/19 12:00:24;;;;;;;;;;;14.00;65.50;;;;;;5033126;28;19921;-78
2021/04/19 12:02:50;;;;;;;;;;;14.10;64.30;;;;;;5044698;28;19932;-78
2021/04/19 12:05:16;;;;;;;;;;;14.10;64.40;;;;;;5026892;28;19984;-78
2021/04/19 12:07:43;;;;;;;;;;;14.20;63.90;;;;;;5040038;28;20323;-78
2021/04/19 12:10:09;;;;;;;;;;;14.20;63.10;;;;;;5031865;28;19933;-76
2021/04/19 12:12:36;;;;;;;;;;;14.30;63.20;;;;;;5019080;28;19937;-76
2021/04/19 12:15:02;;;;;;;;;;;14.40;63.00;;;;;;5022541;28;20328;-77
2021/04/19 12:17:30;;;;;;;;;;;14.50;62.40;;;;;;5021643;28;19921;-80
2021/04/19 12:19:57;;;;;;;;;;;14.60;61.70;;;;;;5032001;28;20025;-78
2021/04/19 12:22:23;;;;;;;;;;;14.70;61.70;;;;;;5024829;28;20470;-78
2021/04/19 12:24:50;;;;;;;;;;;14.70;60.80;;;;;;5024163;28;20778;-78
2021/04/19 12:27:16;;;;;;;;;;;14.70;60.20;;;;;;5028201;28;19937;-78
2021/04/19 12:29:42;;;;;;;;;;;14.70;60.20;;;;;;5033237;28;19929;-79
2021/04/19 12:32:09;;;;;;;;;;;14.60;60.30;;;;;;5026493;28;19928;-79
2021/04/19 12:34:36;;;;;;;;;;;14.50;59.90;;;;;;5041906;28;19978;-80
2021/04/19 12:37:02;;;;;;;;;;;14.40;60.20;;;;;;5045308;28;19921;-79
2021/04/19 12:39:29;;;;;;;;;;;14.40;59.70;;;;;;5025013;28;19936;-79
2021/04/19 12:41:55;;;;;;;;;;;14.20;58.90;;;;;;5032222;28;20028;-78
2021/04/19 12:44:24;;;;;;;;;;;14.20;59.00;;;;;;5021801;28;19922;-79
2021/04/19 12:46:50;;;;;;;;;;;14.10;59.40;;;;;;5028751;28;19933;-77
2021/04/19 12:49:19;;;;;;;;;;;14.10;59.70;;;;;;5036570;28;19929;-77
2021/04/19 12:51:47;;;;;;;;;;;14.10;59.50;;;;;;5017558;28;20281;-75
2021/04/19 12:54:13;;;;;;;;;;;14.10;59.50;;;;;;5020234;28;20024;-78
2021/04/19 12:56:40;;;;;;;;;;;14.10;59.80;;;;;;5024236;28;19929;-78
2021/04/19 12:59:06;;;;;;;;;;;13.90;59.80;;;;;;5029365;28;19928;-79
2021/04/19 13:01:32;;;;;;;;;;;14.00;60.00;;;;;;5026187;28;19921;-79
2021/04/19 13:04:02;;;;;;;;;;;13.90;60.10;;;;;;5042446;28;19921;-80
2021/04/19 13:06:31;;;;;;;;;;;13.90;60.20;;;;;;5032580;28;19947;-78
2021/04/19 13:08:58;;;;;;;;;;;13.80;60.50;;;;;;5021905;28;20354;-78
2021/04/19 13:11:24;;;;;;;;;;;13.80;60.60;;;;;;5027880;28;19967;-77
2021/04/19 13:13:51;;;;;;;;;;;13.70;60.60;;;;;;5026318;28;20033;-79
2021/04/19 13:16:17;;;;;;;;;;;13.70;60.90;;;;;;5024147;28;20377;-79
2021/04/19 13:18:43;;;;;;;;;;;13.70;61.30;;;;;;5031291;28;20354;-79
2021/04/19 13:21:09;;;;;;;;;;;13.70;61.50;;;;;;5026160;28;20365;-79
2021/04/19 13:23:36;;;;;;;;;;;13.70;61.90;;;;;;5023090;28;19921;-79
2021/04/19 13:26:03;;;;;;;;;;;13.80;61.90;;;;;;5027297;28;20265;-78
2021/04/19 13:28:29;;;;;;;;;;;13.80;61.90;;;;;;5023557;28;19930;-78
2021/04/19 13:30:55;;;;;;;;;;;13.80;62.30;;;;;;5024630;28;19927;-77
2021/04/19 13:33:25;;;;;;;;;;;13.90;62.30;;;;;;5019007;28;19925;-80
2021/04/19 13:35:52;;;;;;;;;;;13.90;61.90;;;;;;5028240;28;19944;-80
2021/04/19 13:38:18;;;;;;;;;;;14.00;61.90;;;;;;5035801;28;20391;-78
2021/04/19 13:40:44;;;;;;;;;;;13.80;61.20;;;;;;5031848;28;19929;-77
2021/04/19 13:43:11;;;;;;;;;;;13.80;61.90;;;;;;5028511;28;19925;-79
2021/04/19 13:45:44;;;;;;;;;;;13.80;62.40;;;;;;5023700;28;19921;-78
2021/04/19 13:48:11;;;;;;;;;;;13.80;62.30;;;;;;5030937;28;20404;-77
2021/04/19 13:50:37;;;;;;;;;;;13.80;62.00;;;;;;5030497;28;19921;-78
2021/04/19 13:53:04;;;;;;;;;;;13.70;62.30;;;;;;5032422;28;19925;-78
2021/04/19 13:55:30;;;;;;;;;;;13.80;62.60;;;;;;5014015;28;20278;-77
2021/04/19 13:57:56;;;;;;;;;;;13.70;61.70;;;;;;5027883;28;20360;-76
2021/04/19 14:00:24;;;;;;;;;;;13.80;62.60;;;;;;5017780;28;19921;-78
2021/04/19 14:02:50;;;;;;;;;;;13.80;62.50;;;;;;5031610;28;19926;-77
2021/04/19 14:05:17;;;;;;;;;;;13.90;62.80;;;;;;5035606;28;20369;-77
2021/04/19 14:07:44;;;;;;;;;;;14.00;62.50;;;;;;5027853;28;20368;-77
2021/04/19 14:10:14;;;;;;;;;;;14.00;62.10;;;;;;5035485;28;20242;-77
2021/04/19 14:12:44;;;;;;;;;;;14.00;61.90;;;;;;5024893;28;19927;-77
2021/04/19 14:15:12;;;;;;;;;;;14.10;62.30;;;;;;5019769;28;19921;-78
2021/04/19 14:17:42;;;;;;;;;;;14.10;62.30;;;;;;5030915;28;19921;-76
2021/04/19 14:20:10;;;;;;;;;;;14.10;62.50;;;;;;5041708;28;19933;-77
2021/04/19 14:22:37;;;;;;;;;;;14.10;62.60;;;;;;5032318;28;19928;-77
2021/04/19 14:25:04;;;;;;;;;;;14.10;62.50;;;;;;5040168;28;19921;-77
2021/04/19 14:27:30;;;;;;;;;;;14.10;62.70;;;;;;5030992;28;19932;-78
2021/04/19 14:29:57;;;;;;;;;;;14.10;62.90;;;;;;5035664;28;19933;-77
2021/04/19 14:32:23;;;;;;;;;;;14.10;62.80;;;;;;5031167;28;19921;-78
2021/04/19 14:34:50;;;;;;;;;;;14.10;62.50;;;;;;5046737;28;19921;-76
2021/04/19 14:37:17;;;;;;;;;;;14.10;62.70;;;;;;5035283;28;19975;-77
2021/04/19 14:39:43;;;;;;;;;;;14.10;63.00;;;;;;5031258;28;19928;-76
2021/04/19 14:42:09;;;;;;;;;;;14.00;62.80;;;;;;5039589;28;20289;-75
2021/04/19 14:44:36;;;;;;;;;;;14.00;63.40;;;;;;5035806;28;19921;-78
2021/04/19 14:47:03;;;;;;;;;;;14.00;63.40;;;;;;5031638;28;19990;-77
2021/04/19 14:49:31;;;;;;;;;;;14.00;63.20;;;;;;5029607;28;19922;-77
2021/04/19 14:51:58;;;;;;;;;;;14.00;63.50;;;;;;5037203;28;19921;-76
2021/04/19 14:54:24;;;;;;;;;;;14.00;63.20;;;;;;5025759;28;19922;-77
2021/04/19 14:56:51;;;;;;;;;;;14.00;63.20;;;;;;5028347;28;19921;-76
2021/04/19 14:59:18;;;;;;;;;;;14.00;63.40;;;;;;5034914;28;19921;-76
2021/04/19 15:01:45;;;;;;;;;;;14.10;63.80;;;;;;5025692;28;20336;-76
2021/04/19 15:04:11;;;;;;;;;;;14.10;63.50;;;;;;5049358;28;19927;-77
2021/04/19 15:06:37;;;;;;;;;;;14.10;62.60;;;;;;5047104;28;19925;-77
2021/04/19 15:09:07;;;;;;;;;;;14.00;63.00;;;;;;5034899;28;19925;-77
2021/04/19 15:11:34;;;;;;;;;;;14.00;63.50;;;;;;5032720;28;19921;-77
2021/04/19 15:14:00;;;;;;;;;;;14.00;63.30;;;;;;5025354;28;19925;-77
2021/04/19 15:16:26;;;;;;;;;;;14.00;63.50;;;;;;5020388;28;19937;-77
2021/04/19 15:18:53;;;;;;;;;;;13.90;63.40;;;;;;5010635;28;19921;-76
2021/04/19 15:21:20;;;;;;;;;;;13.90;63.50;;;;;;5014122;28;19937;-77
2021/04/19 15:23:49;;;;;;;;;;;13.90;63.20;;;;;;5007555;28;20282;-77
2021/04/19 15:26:16;;;;;;;;;;;13.80;63.30;;;;;;5011887;28;19928;-77
2021/04/19 15:28:42;;;;;;;;;;;13.70;63.30;;;;;;5009688;28;19937;-77
2021/04/19 15:31:09;;;;;;;;;;;13.70;63.80;;;;;;5012567;28;19921;-76
2021/04/19 15:33:35;;;;;;;;;;;13.70;63.70;;;;;;5014225;28;19944;-76
2021/04/19 15:36:03;;;;;;;;;;;13.70;63.90;;;;;;5013958;28;19925;-75
2021/04/19 15:38:30;;;;;;;;;;;13.60;64.10;;;;;;5020962;28;20367;-76
2021/04/19 15:40:56;;;;;;;;;;;13.70;64.30;;;;;;5006840;28;19921;-76
2021/04/19 15:43:23;;;;;;;;;;;13.70;64.20;;;;;;5011882;28;19921;-76
2021/04/19 15:45:49;;;;;;;;;;;13.70;64.30;;;;;;5011186;28;19922;-76
2021/04/19 15:48:16;;;;;;;;;;;13.80;64.30;;;;;;5013319;28;19928;-76
2021/04/19 15:50:42;;;;;;;;;;;13.90;64.10;;;;;;5013672;28;19922;-77
2021/04/19 15:53:08;;;;;;;;;;;13.90;64.10;;;;;;5026468;28;19921;-76
2021/04/19 15:55:35;;;;;;;;;;;13.90;64.10;;;;;;5025211;28;19921;-77
2021/04/19 15:58:02;;;;;;;;;;;13.80;63.80;;;;;;5013970;28;19957;-78
2021/04/19 16:00:29;;;;;;;;;;;13.80;63.90;;;;;;5013666;28;19922;-77
2021/04/19 16:02:55;;;;;;;;;;;13.70;63.60;;;;;;5012371;28;19922;-80
2021/04/19 16:05:21;;;;;;;;;;;13.70;63.70;;;;;;5018996;28;19922;-77
2021/04/19 16:07:49;;;;;;;;;;;13.70;63.90;;;;;;5025186;28;20388;-77
2021/04/19 16:10:15;;;;;;;;;;;13.80;64.90;;;;;;5028997;28;19933;-77
2021/04/19 16:12:41;;;;;;;;;;;13.80;64.10;;;;;;5020232;28;19948;-81
2021/04/19 16:15:21;;;;;;;;;;;13.90;63.70;;;;;;5016599;28;19930;-82
2021/04/19 16:17:49;;;;;;;;;;;13.80;63.40;;;;;;5033085;28;19928;-79
2021/04/19 16:20:16;;;;;;;;;;;13.90;63.40;;;;;;5033389;28;20119;-76
2021/04/19 16:22:42;;;;;;;;;;;13.90;63.20;;;;;;5036107;28;19921;-76
2021/04/19 16:25:09;;;;;;;;;;;13.90;63.10;;;;;;5033327;28;19921;-76
2021/04/19 16:27:37;;;;;;;;;;;13.90;63.30;;;;;;5033093;28;19928;-76
2021/04/19 16:30:05;;;;;;;;;;;13.90;63.50;;;;;;5033071;28;19921;-76
2021/04/19 16:32:31;;;;;;;;;;;13.90;63.60;;;;;;5033053;28;19944;-76
2021/04/19 16:34:58;;;;;;;;;;;13.90;63.70;;;;;;5033057;28;19921;-76
2021/04/19 16:37:24;;;;;;;;;;;13.90;63.60;;;;;;5031552;28;19925;-76
2021/04/19 16:39:50;;;;;;;;;;;13.90;63.60;;;;;;5033475;28;20328;-76
2021/04/19 16:42:17;;;;;;;;;;;13.90;63.40;;;;;;5032880;28;20382;-76
2021/04/19 16:44:43;;;;;;;;;;;13.80;63.30;;;;;;5033110;28;20354;-76
2021/04/19 16:47:10;;;;;;;;;;;13.90;63.30;;;;;;5033000;28;19929;-77
2021/04/19 16:49:36;;;;;;;;;;;13.90;63.10;;;;;;5024732;28;20289;-77
2021/04/19 16:52:04;;;;;;;;;;;13.90;62.90;;;;;;5032989;28;19921;-77
2021/04/19 16:54:30;;;;;;;;;;;13.80;62.50;;;;;;5032829;28;19921;-77
2021/04/19 16:56:56;;;;;;;;;;;13.80;62.60;;;;;;5032884;28;19921;-77
2021/04/19 16:59:23;;;;;;;;;;;13.80;62.50;;;;;;5033039;28;19929;-77
2021/04/19 17:01:49;;;;;;;;;;;13.80;62.50;;;;;;5033005;28;19925;-76
2021/04/19 17:04:15;;;;;;;;;;;13.80;62.40;;;;;;5031142;28;19921;-77
2021/04/19 17:06:42;;;;;;;;;;;13.70;62.50;;;;;;5032833;28;19933;-77
2021/04/19 17:09:09;;;;;;;;;;;13.70;62.50;;;;;;5033168;28;20312;-77
2021/04/19 17:11:35;;;;;;;;;;;13.70;62.70;;;;;;5032646;28;19921;-77
2021/04/19 17:14:01;;;;;;;;;;;13.60;62.70;;;;;;5032650;28;19928;-77
2021/04/19 17:16:28;;;;;;;;;;;13.60;62.90;;;;;;5029350;28;19968;-76
2021/04/19 17:18:54;;;;;;;;;;;13.60;63.10;;;;;;5013316;28;20036;-76
2021/04/19 17:21:23;;;;;;;;;;;13.60;63.30;;;;;;5013043;28;19928;-77
2021/04/19 17:23:50;;;;;;;;;;;13.60;63.40;;;;;;5012956;28;19921;-77
2021/04/19 17:26:17;;;;;;;;;;;13.60;63.50;;;;;;5012783;28;20381;-77
2021/04/19 17:28:44;;;;;;;;;;;13.50;63.70;;;;;;5011368;28;19952;-76
2021/04/19 17:31:10;;;;;;;;;;;13.40;63.90;;;;;;5012979;28;19922;-77
2021/04/19 17:33:36;;;;;;;;;;;13.30;64.20;;;;;;5012917;28;20570;-77
2021/04/19 17:36:03;;;;;;;;;;;13.20;64.50;;;;;;5013068;28;19921;-77
2021/04/19 17:38:29;;;;;;;;;;;13.10;64.80;;;;;;5013167;28;19928;-76
2021/04/19 17:40:55;;;;;;;;;;;13.00;65.10;;;;;;5012727;28;19921;-76
2021/04/19 17:43:23;;;;;;;;;;;12.90;65.40;;;;;;5012867;28;19921;-76
2021/04/19 17:45:49;;;;;;;;;;;12.90;65.60;;;;;;5012898;28;19928;-77
2021/04/19 17:48:15;;;;;;;;;;;12.80;66.50;;;;;;5012911;28;20305;-76
2021/04/19 17:50:42;;;;;;;;;;;12.70;66.00;;;;;;5012632;28;19925;-76
2021/04/19 17:53:08;;;;;;;;;;;12.70;66.20;;;;;;5012713;28;19921;-76
2021/04/19 17:55:35;;;;;;;;;;;12.60;66.50;;;;;;5011068;28;19921;-76
2021/04/19 17:58:05;;;;;;;;;;;12.60;66.60;;;;;;5012513;28;19928;-76
2021/04/19 18:00:32;;;;;;;;;;;12.50;66.80;;;;;;5014645;28;19926;-78
2021/04/19 18:02:59;;;;;;;;;;;12.50;67.00;;;;;;5015175;28;19925;-77
2021/04/19 18:05:26;;;;;;;;;;;12.40;67.10;;;;;;5034008;28;19921;-78
2021/04/19 18:07:53;;;;;;;;;;;12.40;67.30;;;;;;5032084;28;19922;-78
2021/04/19 18:10:20;;;;;;;;;;;12.40;67.50;;;;;;5033914;28;19922;-78
2021/04/19 18:12:47;;;;;;;;;;;12.40;67.70;;;;;;5030215;28;19940;-78
2021/04/19 18:15:14;;;;;;;;;;;12.40;67.70;;;;;;5016914;28;20054;-78
2021/04/19 18:17:43;;;;;;;;;;;12.40;67.70;;;;;;5038557;28;19957;-78
2021/04/19 18:20:14;;;;;;;;;;;12.40;67.80;;;;;;5035122;28;19928;-80
2021/04/19 18:22:41;;;;;;;;;;;12.30;67.80;;;;;;5032155;28;19925;-80
2021/04/19 18:25:08;;;;;;;;;;;12.30;68.00;;;;;;5035603;28;19928;-78
2021/04/19 18:27:35;;;;;;;;;;;12.20;68.10;;;;;;5041530;28;20373;-77
2021/04/19 18:30:01;;;;;;;;;;;12.10;68.10;;;;;;5035276;28;19921;-79
2021/04/19 18:32:28;;;;;;;;;;;12.10;68.30;;;;;;5042039;28;19926;-79
2021/04/19 18:34:55;;;;;;;;;;;12.00;68.20;;;;;;5036698;28;19921;-79
2021/04/19 18:37:23;;;;;;;;;;;12.00;68.30;;;;;;5051159;28;19928;-78
2021/04/19 18:39:50;;;;;;;;;;;12.00;68.50;;;;;;5034951;28;19920;-78
2021/04/19 18:42:16;;;;;;;;;;;11.90;68.60;;;;;;5034979;28;20353;-79